sensor_id;sensor_type;location;lat;lon;timestamp;P1;durP1;ratioP1;P2;durP2;ratioP2
77705;SDS011;66874;45.274;5.880;2023-04-03T02:01:05;2.53;;;1.40;;
77705;SDS011;66874;45.274;5.880;2023-04-03T02:03:31;1.60;;;1.10;;
77705;SDS011;66874;45.274;5.880;2023-04-03T02:05:57;2.53;;;1.30;;
77705;SDS011;66874;45.274;5.880;2023-04-03T02:08:22;3.90;;;1.17;;
77705;SDS011;66874;45.274;5.880;2023-04-03T02:10:48;1.83;;;1.30;;
77705;SDS011;66874;45.274;5.880;2023-04-03T02:13:15;3.75;;;1.02;;
77705;SDS011;66874;45.274;5.880;2023-04-03T02:15:41;1.35;;;1.10;;
77705;SDS011;66874;45.274;5.880;2023-04-03T02:18:06;1.67;;;1.00;;
77705;SDS011;66874;45.274;5.880;2023-04-03T02:20:32;7.97;;;1.25;;
77705;SDS011;66874;45.274;5.880;2023-04-03T02:22:58;1.27;;;1.00;;
77705;SDS011;66874;45.274;5.880;2023-04-03T02:25:24;2.55;;;1.65;;
77705;SDS011;66874;45.274;5.880;2023-04-03T02:27:49;2.38;;;1.35;;
77705;SDS011;66874;45.274;5.880;2023-04-03T05:30:53;4.03;;;2.03;;
77705;SDS011;66874;45.274;5.880;2023-04-03T05:35:46;6.15;;;2.13;;
77705;SDS011;66874;45.274;5.880;2023-04-03T05:38:11;5.57;;;2.45;;
77705;SDS011;66874;45.274;5.880;2023-04-03T05:40:37;3.80;;;2.15;;
77705;SDS011;66874;45.274;5.880;2023-04-03T05:43:02;4.38;;;2.25;;
77705;SDS011;66874;45.274;5.880;2023-04-03T05:45:28;3.70;;;2.28;;
77705;SDS011;66874;45.274;5.880;2023-04-03T05:47:53;4.47;;;2.53;;
77705;SDS011;66874;45.274;5.880;2023-04-03T05:50:18;3.83;;;2.08;;
77705;SDS011;66874;45.274;5.880;2023-04-03T05:52:44;5.85;;;2.20;;
77705;SDS011;66874;45.274;5.880;2023-04-03T05:55:12;3.60;;;2.40;;
77705;SDS011;66874;45.274;5.880;2023-04-03T05:57:38;4.57;;;2.60;;
77705;SDS011;66874;45.274;5.880;2023-04-03T06:00:08;3.90;;;3.13;;
77705;SDS011;66874;45.274;5.880;2023-04-03T06:02:37;4.30;;;2.80;;
77705;SDS011;66874;45.274;5.880;2023-04-03T06:05:03;7.03;;;3.15;;
77705;SDS011;66874;45.274;5.880;2023-04-03T06:07:29;4.38;;;2.90;;
77705;SDS011;66874;45.274;5.880;2023-04-03T06:09:55;5.75;;;3.40;;
77705;SDS011;66874;45.274;5.880;2023-04-03T06:12:22;5.50;;;3.57;;
77705;SDS011;66874;45.274;5.880;2023-04-03T06:14:48;7.60;;;5.57;;
77705;SDS011;66874;45.274;5.880;2023-04-03T06:17:14;7.20;;;5.30;;
77705;SDS011;66874;45.274;5.880;2023-04-03T06:19:40;4.85;;;3.47;;
77705;SDS011;66874;45.274;5.880;2023-04-03T06:22:06;4.88;;;3.60;;
77705;SDS011;66874;45.274;5.880;2023-04-03T06:24:32;5.72;;;4.22;;
77705;SDS011;66874;45.274;5.880;2023-04-03T06:26:58;4.72;;;3.60;;
77705;SDS011;66874;45.274;5.880;2023-04-03T06:29:23;6.05;;;3.30;;
77705;SDS011;66874;45.274;5.880;2023-04-03T06:31:50;6.50;;;4.68;;
77705;SDS011;66874;45.274;5.880;2023-04-03T06:34:16;9.15;;;4.13;;
77705;SDS011;66874;45.274;5.880;2023-04-03T06:36:42;9.27;;;4.55;;
77705;SDS011;66874;45.274;5.880;2023-04-03T06:39:08;8.20;;;3.70;;
77705;SDS011;66874;45.274;5.880;2023-04-03T06:41:38;7.70;;;4.22;;
77705;SDS011;66874;45.274;5.880;2023-04-03T06:44:03;6.28;;;3.50;;
77705;SDS011;66874;45.274;5.880;2023-04-03T06:46:29;4.88;;;3.30;;
77705;SDS011;66874;45.274;5.880;2023-04-03T06:48:54;6.40;;;4.88;;
77705;SDS011;66874;45.274;5.880;2023-04-03T06:51:26;8.45;;;5.20;;
77705;SDS011;66874;45.274;5.880;2023-04-03T06:53:54;5.90;;;3.83;;
77705;SDS011;66874;45.274;5.880;2023-04-03T06:56:21;5.40;;;4.05;;
77705;SDS011;66874;45.274;5.880;2023-04-03T06:58:47;7.20;;;4.75;;
77705;SDS011;66874;45.274;5.880;2023-04-03T07:01:13;5.55;;;3.95;;
77705;SDS011;66874;45.274;5.880;2023-04-03T07:03:41;5.22;;;3.83;;
77705;SDS011;66874;45.274;5.880;2023-04-03T07:06:07;5.00;;;3.80;;
77705;SDS011;66874;45.274;5.880;2023-04-03T07:08:36;4.60;;;3.60;;
77705;SDS011;66874;45.274;5.880;2023-04-03T07:11:01;6.47;;;4.57;;
77705;SDS011;66874;45.274;5.880;2023-04-03T07:13:26;4.50;;;3.78;;
77705;SDS011;66874;45.274;5.880;2023-04-03T07:15:52;6.07;;;3.78;;
77705;SDS011;66874;45.274;5.880;2023-04-03T07:18:18;4.55;;;3.83;;
77705;SDS011;66874;45.274;5.880;2023-04-03T07:20:44;7.25;;;4.07;;
77705;SDS011;66874;45.274;5.880;2023-04-03T07:23:09;5.68;;;3.72;;
77705;SDS011;66874;45.274;5.880;2023-04-03T07:25:35;4.55;;;3.20;;
77705;SDS011;66874;45.274;5.880;2023-04-03T07:28:01;7.68;;;4.05;;
77705;SDS011;66874;45.274;5.880;2023-04-03T07:30:27;6.90;;;3.50;;
77705;SDS011;66874;45.274;5.880;2023-04-03T07:32:52;5.25;;;3.30;;
77705;SDS011;66874;45.274;5.880;2023-04-03T07:35:18;6.95;;;4.38;;
77705;SDS011;66874;45.274;5.880;2023-04-03T07:37:44;11.88;;;4.05;;
77705;SDS011;66874;45.274;5.880;2023-04-03T07:40:09;13.60;;;4.80;;
77705;SDS011;66874;45.274;5.880;2023-04-03T07:42:35;5.97;;;3.80;;
77705;SDS011;66874;45.274;5.880;2023-04-03T07:45:01;6.85;;;3.85;;
77705;SDS011;66874;45.274;5.880;2023-04-03T07:47:27;5.05;;;4.03;;
77705;SDS011;66874;45.274;5.880;2023-04-03T07:49:53;9.95;;;4.47;;
77705;SDS011;66874;45.274;5.880;2023-04-03T07:52:18;6.70;;;4.68;;
77705;SDS011;66874;45.274;5.880;2023-04-03T07:54:44;5.95;;;3.70;;
77705;SDS011;66874;45.274;5.880;2023-04-03T07:57:09;4.80;;;3.80;;
77705;SDS011;66874;45.274;5.880;2023-04-03T07:59:35;4.35;;;3.47;;
77705;SDS011;66874;45.274;5.880;2023-04-03T08:02:00;5.75;;;3.85;;
77705;SDS011;66874;45.274;5.880;2023-04-03T08:04:25;5.38;;;3.72;;
77705;SDS011;66874;45.274;5.880;2023-04-03T08:06:52;18.45;;;5.85;;
77705;SDS011;66874;45.274;5.880;2023-04-03T08:09:18;5.55;;;3.67;;
77705;SDS011;66874;45.274;5.880;2023-04-03T08:11:44;6.57;;;4.10;;
77705;SDS011;66874;45.274;5.880;2023-04-03T08:14:10;6.45;;;4.25;;
77705;SDS011;66874;45.274;5.880;2023-04-03T08:16:41;7.20;;;3.90;;
77705;SDS011;66874;45.274;5.880;2023-04-03T08:19:07;6.43;;;4.18;;
77705;SDS011;66874;45.274;5.880;2023-04-03T08:21:32;5.40;;;3.45;;
77705;SDS011;66874;45.274;5.880;2023-04-03T08:23:58;4.35;;;3.45;;
77705;SDS011;66874;45.274;5.880;2023-04-03T08:26:23;4.78;;;3.95;;
77705;SDS011;66874;45.274;5.880;2023-04-03T08:28:49;5.68;;;3.65;;
77705;SDS011;66874;45.274;5.880;2023-04-03T08:31:15;6.82;;;4.13;;
77705;SDS011;66874;45.274;5.880;2023-04-03T08:33:44;3.75;;;2.92;;
77705;SDS011;66874;45.274;5.880;2023-04-03T08:36:20;4.85;;;3.30;;
77705;SDS011;66874;45.274;5.880;2023-04-03T08:38:47;19.85;;;11.48;;
77705;SDS011;66874;45.274;5.880;2023-04-03T08:41:15;9.63;;;6.50;;
77705;SDS011;66874;45.274;5.880;2023-04-03T08:47:13;8.23;;;4.45;;
77705;SDS011;66874;45.274;5.880;2023-04-03T08:49:28;5.53;;;3.40;;
77705;SDS011;66874;45.274;5.880;2023-04-03T08:51:57;7.15;;;4.50;;
77705;SDS011;66874;45.274;5.880;2023-04-03T08:54:29;4.70;;;3.47;;
77705;SDS011;66874;45.274;5.880;2023-04-03T08:56:58;4.97;;;2.95;;
77705;SDS011;66874;45.274;5.880;2023-04-03T08:59:28;5.00;;;2.58;;
77705;SDS011;66874;45.274;5.880;2023-04-03T09:01:57;3.92;;;2.50;;
77705;SDS011;66874;45.274;5.880;2023-04-03T09:04:27;3.30;;;2.50;;
77705;SDS011;66874;45.274;5.880;2023-04-03T09:07:02;2.17;;;1.98;;
77705;SDS011;66874;45.274;5.880;2023-04-03T09:09:38;4.68;;;2.45;;
77705;SDS011;66874;45.274;5.880;2023-04-03T09:17:55;4.70;;;2.03;;
77705;SDS011;66874;45.274;5.880;2023-04-03T09:23:14;2.80;;;1.88;;
77705;SDS011;66874;45.274;5.880;2023-04-03T09:25:53;2.38;;;1.83;;
77705;SDS011;66874;45.274;5.880;2023-04-03T09:28:27;2.88;;;1.80;;
77705;SDS011;66874;45.274;5.880;2023-04-03T09:30:55;3.75;;;2.25;;
77705;SDS011;66874;45.274;5.880;2023-04-03T09:33:20;3.80;;;2.72;;
77705;SDS011;66874;45.274;5.880;2023-04-03T09:35:47;5.65;;;1.85;;
77705;SDS011;66874;45.274;5.880;2023-04-03T09:38:15;2.45;;;1.80;;
77705;SDS011;66874;45.274;5.880;2023-04-03T09:40:43;2.67;;;1.30;;
77705;SDS011;66874;45.274;5.880;2023-04-03T09:45:43;2.42;;;2.05;;
77705;SDS011;66874;45.274;5.880;2023-04-03T09:50:38;2.53;;;1.52;;
77705;SDS011;66874;45.274;5.880;2023-04-03T09:53:33;1.52;;;1.25;;
77705;SDS011;66874;45.274;5.880;2023-04-03T10:01:09;2.05;;;0.82;;
77705;SDS011;66874;45.274;5.880;2023-04-03T10:06:31;1.80;;;1.10;;
77705;SDS011;66874;45.274;5.880;2023-04-03T10:09:04;0.80;;;0.80;;
77705;SDS011;66874;45.274;5.880;2023-04-03T10:11:48;1.30;;;0.85;;
77705;SDS011;66874;45.274;5.880;2023-04-03T10:14:24;1.58;;;0.70;;
77705;SDS011;66874;45.274;5.880;2023-04-03T10:16:52;0.63;;;0.60;;
77705;SDS011;66874;45.274;5.880;2023-04-03T10:22:45;0.90;;;0.73;;
77705;SDS011;66874;45.274;5.880;2023-04-03T10:25:42;0.88;;;0.80;;
77705;SDS011;66874;45.274;5.880;2023-04-03T10:28:18;1.75;;;0.60;;
77705;SDS011;66874;45.274;5.880;2023-04-03T10:31:04;0.65;;;0.50;;
77705;SDS011;66874;45.274;5.880;2023-04-03T10:36:53;0.70;;;0.40;;
77705;SDS011;66874;45.274;5.880;2023-04-03T10:39:44;0.98;;;0.60;;
77705;SDS011;66874;45.274;5.880;2023-04-03T10:42:34;0.63;;;0.60;;
77705;SDS011;66874;45.274;5.880;2023-04-03T10:45:21;0.80;;;0.65;;
77705;SDS011;66874;45.274;5.880;2023-04-03T10:48:04;0.50;;;0.50;;
77705;SDS011;66874;45.274;5.880;2023-04-03T10:53:10;0.90;;;0.60;;
77705;SDS011;66874;45.274;5.880;2023-04-03T10:55:51;0.77;;;0.50;;
77705;SDS011;66874;45.274;5.880;2023-04-03T10:58:29;0.80;;;0.60;;
77705;SDS011;66874;45.274;5.880;2023-04-03T11:01:01;2.47;;;0.70;;
77705;SDS011;66874;45.274;5.880;2023-04-03T11:03:34;0.95;;;0.75;;
77705;SDS011;66874;45.274;5.880;2023-04-03T11:06:06;1.30;;;0.80;;
77705;SDS011;66874;45.274;5.880;2023-04-03T11:08:39;1.13;;;0.60;;
77705;SDS011;66874;45.274;5.880;2023-04-03T11:11:11;2.17;;;0.90;;
77705;SDS011;66874;45.274;5.880;2023-04-03T11:13:46;1.25;;;0.77;;
77705;SDS011;66874;45.274;5.880;2023-04-03T11:16:19;0.77;;;0.70;;
77705;SDS011;66874;45.274;5.880;2023-04-03T11:18:53;0.60;;;0.60;;
77705;SDS011;66874;45.274;5.880;2023-04-03T11:21:28;1.15;;;0.70;;
77705;SDS011;66874;45.274;5.880;2023-04-03T11:23:59;3.20;;;1.08;;
77705;SDS011;66874;45.274;5.880;2023-04-03T11:26:31;1.10;;;0.60;;
77705;SDS011;66874;45.274;5.880;2023-04-03T11:29:08;1.17;;;0.73;;
77705;SDS011;66874;45.274;5.880;2023-04-03T11:37:10;1.63;;;0.50;;
77705;SDS011;66874;45.274;5.880;2023-04-03T11:39:55;0.77;;;0.60;;
77705;SDS011;66874;45.274;5.880;2023-04-03T11:47:46;0.88;;;0.65;;
77705;SDS011;66874;45.274;5.880;2023-04-03T12:05:55;0.82;;;0.70;;
77705;SDS011;66874;45.274;5.880;2023-04-03T12:13:41;0.85;;;0.63;;
77705;SDS011;66874;45.274;5.880;2023-04-03T12:43:42;0.80;;;0.63;;
77705;SDS011;66874;45.274;5.880;2023-04-03T12:46:16;1.00;;;0.70;;
77705;SDS011;66874;45.274;5.880;2023-04-03T12:51:09;0.82;;;0.70;;
77705;SDS011;66874;45.274;5.880;2023-04-03T12:53:39;1.13;;;0.60;;
77705;SDS011;66874;45.274;5.880;2023-04-03T12:56:23;1.45;;;0.60;;
77705;SDS011;66874;45.274;5.880;2023-04-03T12:59:13;2.47;;;0.55;;
77705;SDS011;66874;45.274;5.880;2023-04-03T13:01:41;1.95;;;0.68;;
77705;SDS011;66874;45.274;5.880;2023-04-03T13:04:09;3.80;;;0.50;;
77705;SDS011;66874;45.274;5.880;2023-04-03T13:06:38;0.70;;;0.50;;
77705;SDS011;66874;45.274;5.880;2023-04-03T13:09:18;0.68;;;0.52;;
77705;SDS011;66874;45.274;5.880;2023-04-03T13:11:46;3.22;;;0.60;;
77705;SDS011;66874;45.274;5.880;2023-04-03T13:14:17;1.02;;;0.60;;
77705;SDS011;66874;45.274;5.880;2023-04-03T13:16:54;0.60;;;0.60;;
77705;SDS011;66874;45.274;5.880;2023-04-03T13:19:35;0.77;;;0.55;;
77705;SDS011;66874;45.274;5.880;2023-04-03T13:22:05;1.08;;;0.60;;
77705;SDS011;66874;45.274;5.880;2023-04-03T13:24:34;1.88;;;0.60;;
77705;SDS011;66874;45.274;5.880;2023-04-03T13:27:02;1.00;;;0.55;;
77705;SDS011;66874;45.274;5.880;2023-04-03T13:29:30;3.50;;;0.50;;
77705;SDS011;66874;45.274;5.880;2023-04-03T13:32:01;1.73;;;0.50;;
77705;SDS011;66874;45.274;5.880;2023-04-03T13:34:29;0.60;;;0.60;;
77705;SDS011;66874;45.274;5.880;2023-04-03T13:37:06;0.63;;;0.57;;
77705;SDS011;66874;45.274;5.880;2023-04-03T13:39:43;0.85;;;0.50;;
77705;SDS011;66874;45.274;5.880;2023-04-03T13:42:17;1.15;;;1.05;;
77705;SDS011;66874;45.274;5.880;2023-04-03T13:44:48;1.02;;;0.47;;
77705;SDS011;66874;45.274;5.880;2023-04-03T13:47:21;0.50;;;0.50;;
77705;SDS011;66874;45.274;5.880;2023-04-03T13:52:41;0.50;;;0.50;;
77705;SDS011;66874;45.274;5.880;2023-04-03T13:55:29;0.50;;;0.50;;
77705;SDS011;66874;45.274;5.880;2023-04-03T13:57:57;0.80;;;0.80;;
77705;SDS011;66874;45.274;5.880;2023-04-03T14:05:57;0.55;;;0.50;;
77705;SDS011;66874;45.274;5.880;2023-04-03T14:08:23;2.30;;;0.50;;
77705;SDS011;66874;45.274;5.880;2023-04-03T14:10:48;0.63;;;0.50;;
77705;SDS011;66874;45.274;5.880;2023-04-03T14:13:15;2.45;;;0.68;;
77705;SDS011;66874;45.274;5.880;2023-04-03T14:15:42;3.65;;;0.57;;
77705;SDS011;66874;45.274;5.880;2023-04-03T14:18:12;1.02;;;0.60;;
77705;SDS011;66874;45.274;5.880;2023-04-03T14:20:39;0.88;;;0.70;;
77705;SDS011;66874;45.274;5.880;2023-04-03T14:23:05;1.00;;;0.70;;
77705;SDS011;66874;45.274;5.880;2023-04-03T14:25:31;0.60;;;0.50;;
77705;SDS011;66874;45.274;5.880;2023-04-03T14:27:57;0.75;;;0.70;;
77705;SDS011;66874;45.274;5.880;2023-04-03T14:30:27;1.08;;;0.60;;
77705;SDS011;66874;45.274;5.880;2023-04-03T14:32:54;0.80;;;0.70;;
77705;SDS011;66874;45.274;5.880;2023-04-03T14:35:20;3.70;;;0.77;;
77705;SDS011;66874;45.274;5.880;2023-04-03T14:37:46;0.60;;;0.60;;
77705;SDS011;66874;45.274;5.880;2023-04-03T14:40:17;1.00;;;0.75;;
77705;SDS011;66874;45.274;5.880;2023-04-03T14:42:45;4.72;;;1.00;;
77705;SDS011;66874;45.274;5.880;2023-04-03T14:45:13;0.77;;;0.45;;
77705;SDS011;66874;45.274;5.880;2023-04-03T14:47:47;0.73;;;0.60;;
77705;SDS011;66874;45.274;5.880;2023-04-03T14:50:16;2.00;;;0.55;;
77705;SDS011;66874;45.274;5.880;2023-04-03T14:52:47;0.93;;;0.70;;
77705;SDS011;66874;45.274;5.880;2023-04-03T14:55:15;0.85;;;0.60;;
77705;SDS011;66874;45.274;5.880;2023-04-03T14:57:42;1.25;;;0.82;;
77705;SDS011;66874;45.274;5.880;2023-04-03T15:00:11;2.47;;;0.85;;
77705;SDS011;66874;45.274;5.880;2023-04-03T15:02:39;0.90;;;0.80;;
77705;SDS011;66874;45.274;5.880;2023-04-03T15:05:06;2.15;;;0.85;;
77705;SDS011;66874;45.274;5.880;2023-04-03T15:07:40;2.47;;;0.73;;
77705;SDS011;66874;45.274;5.880;2023-04-03T15:10:29;0.88;;;0.77;;
77705;SDS011;66874;45.274;5.880;2023-04-03T15:12:56;1.27;;;0.80;;
77705;SDS011;66874;45.274;5.880;2023-04-03T15:15:22;1.02;;;0.90;;
77705;SDS011;66874;45.274;5.880;2023-04-03T15:17:52;3.00;;;1.17;;
77705;SDS011;66874;45.274;5.880;2023-04-03T15:20:21;1.83;;;0.82;;
77705;SDS011;66874;45.274;5.880;2023-04-03T15:22:49;4.22;;;0.93;;
77705;SDS011;66874;45.274;5.880;2023-04-03T15:25:14;1.38;;;0.93;;
77705;SDS011;66874;45.274;5.880;2023-04-03T15:27:40;1.10;;;0.98;;
77705;SDS011;66874;45.274;5.880;2023-04-03T15:30:08;1.60;;;0.80;;
77705;SDS011;66874;45.274;5.880;2023-04-03T15:32:39;1.08;;;0.98;;
77705;SDS011;66874;45.274;5.880;2023-04-03T15:35:05;1.05;;;0.95;;
77705;SDS011;66874;45.274;5.880;2023-04-03T15:37:30;1.20;;;1.00;;
77705;SDS011;66874;45.274;5.880;2023-04-03T15:39:56;1.00;;;0.90;;
77705;SDS011;66874;45.274;5.880;2023-04-03T15:42:21;2.60;;;0.85;;
77705;SDS011;66874;45.274;5.880;2023-04-03T15:44:46;3.83;;;1.15;;
77705;SDS011;66874;45.274;5.880;2023-04-03T15:47:12;4.40;;;2.78;;
77705;SDS011;66874;45.274;5.880;2023-04-03T15:49:37;1.30;;;1.20;;
77705;SDS011;66874;45.274;5.880;2023-04-03T15:52:03;1.27;;;1.17;;
77705;SDS011;66874;45.274;5.880;2023-04-03T15:54:29;1.70;;;1.42;;
77705;SDS011;66874;45.274;5.880;2023-04-03T15:56:55;2.58;;;1.10;;
77705;SDS011;66874;45.274;5.880;2023-04-03T15:59:21;3.50;;;2.22;;
77705;SDS011;66874;45.274;5.880;2023-04-03T16:01:47;1.55;;;1.30;;
77705;SDS011;66874;45.274;5.880;2023-04-03T16:04:13;1.60;;;1.50;;
77705;SDS011;66874;45.274;5.880;2023-04-03T16:06:39;2.53;;;1.70;;
77705;SDS011;66874;45.274;5.880;2023-04-03T16:09:04;1.45;;;1.35;;
77705;SDS011;66874;45.274;5.880;2023-04-03T16:11:31;1.40;;;1.30;;
77705;SDS011;66874;45.274;5.880;2023-04-03T16:13:56;2.10;;;1.50;;
77705;SDS011;66874;45.274;5.880;2023-04-03T16:16:22;1.77;;;1.30;;
77705;SDS011;66874;45.274;5.880;2023-04-03T16:18:50;1.50;;;1.40;;
77705;SDS011;66874;45.274;5.880;2023-04-03T16:21:16;4.43;;;2.50;;
77705;SDS011;66874;45.274;5.880;2023-04-03T16:23:43;3.70;;;1.95;;
77705;SDS011;66874;45.274;5.880;2023-04-03T16:26:09;1.20;;;1.10;;
77705;SDS011;66874;45.274;5.880;2023-04-03T16:28:35;1.33;;;1.23;;
77705;SDS011;66874;45.274;5.880;2023-04-03T16:31:00;1.20;;;1.00;;
77705;SDS011;66874;45.274;5.880;2023-04-03T16:33:26;1.13;;;1.02;;
77705;SDS011;66874;45.274;5.880;2023-04-03T16:35:52;1.35;;;1.00;;
77705;SDS011;66874;45.274;5.880;2023-04-03T16:38:18;1.10;;;1.00;;
77705;SDS011;66874;45.274;5.880;2023-04-03T16:40:45;1.08;;;0.93;;
77705;SDS011;66874;45.274;5.880;2023-04-03T16:43:10;1.63;;;0.98;;
77705;SDS011;66874;45.274;5.880;2023-04-03T16:45:36;3.30;;;1.05;;
77705;SDS011;66874;45.274;5.880;2023-04-03T16:48:02;3.03;;;0.98;;
77705;SDS011;66874;45.274;5.880;2023-04-03T16:50:28;1.15;;;0.90;;
77705;SDS011;66874;45.274;5.880;2023-04-03T16:52:53;1.25;;;0.90;;
77705;SDS011;66874;45.274;5.880;2023-04-03T16:55:18;2.28;;;1.10;;
77705;SDS011;66874;45.274;5.880;2023-04-03T16:57:45;3.40;;;1.20;;
77705;SDS011;66874;45.274;5.880;2023-04-03T17:00:11;5.50;;;1.92;;
77705;SDS011;66874;45.274;5.880;2023-04-03T17:02:37;2.72;;;1.15;;
77705;SDS011;66874;45.274;5.880;2023-04-03T17:05:03;1.42;;;1.05;;
77705;SDS011;66874;45.274;5.880;2023-04-03T17:07:29;1.77;;;1.40;;
77705;SDS011;66874;45.274;5.880;2023-04-03T17:09:55;1.80;;;1.50;;
77705;SDS011;66874;45.274;5.880;2023-04-03T17:12:20;2.25;;;1.70;;
77705;SDS011;66874;45.274;5.880;2023-04-03T17:14:46;4.63;;;1.30;;
77705;SDS011;66874;45.274;5.880;2023-04-03T17:17:12;1.92;;;1.40;;
77705;SDS011;66874;45.274;5.880;2023-04-03T17:19:39;2.85;;;1.80;;
77705;SDS011;66874;45.274;5.880;2023-04-03T17:22:06;3.92;;;2.70;;
77705;SDS011;66874;45.274;5.880;2023-04-03T17:24:33;24.63;;;10.80;;
77705;SDS011;66874;45.274;5.880;2023-04-03T17:26:59;4.45;;;2.80;;
77705;SDS011;66874;45.274;5.880;2023-04-03T17:29:24;20.40;;;10.27;;
77705;SDS011;66874;45.274;5.880;2023-04-03T17:31:50;27.30;;;12.40;;
77705;SDS011;66874;45.274;5.880;2023-04-03T17:34:15;13.15;;;6.68;;
77705;SDS011;66874;45.274;5.880;2023-04-03T17:36:41;12.43;;;5.78;;
77705;SDS011;66874;45.274;5.880;2023-04-03T17:39:06;35.17;;;15.02;;
77705;SDS011;66874;45.274;5.880;2023-04-03T17:41:32;7.88;;;5.03;;
77705;SDS011;66874;45.274;5.880;2023-04-03T17:43:58;4.47;;;1.92;;
77705;SDS011;66874;45.274;5.880;2023-04-03T17:46:23;4.45;;;2.05;;
77705;SDS011;66874;45.274;5.880;2023-04-03T17:48:50;7.07;;;3.60;;
77705;SDS011;66874;45.274;5.880;2023-04-03T17:51:17;3.75;;;2.45;;
77705;SDS011;66874;45.274;5.880;2023-04-03T17:53:45;5.85;;;3.95;;
77705;SDS011;66874;45.274;5.880;2023-04-03T17:56:18;5.60;;;4.03;;
77705;SDS011;66874;45.274;5.880;2023-04-03T17:58:46;4.80;;;3.55;;
77705;SDS011;66874;45.274;5.880;2023-04-03T18:01:15;2.35;;;1.88;;
77705;SDS011;66874;45.274;5.880;2023-04-03T18:03:42;5.03;;;1.90;;
77705;SDS011;66874;45.274;5.880;2023-04-03T18:06:09;2.47;;;2.28;;
77705;SDS011;66874;45.274;5.880;2023-04-03T18:08:39;1.70;;;1.52;;
77705;SDS011;66874;45.274;5.880;2023-04-03T18:11:08;3.20;;;1.83;;
77705;SDS011;66874;45.274;5.880;2023-04-03T18:13:34;2.00;;;1.77;;
77705;SDS011;66874;45.274;5.880;2023-04-03T18:16:02;4.25;;;2.28;;
77705;SDS011;66874;45.274;5.880;2023-04-03T18:18:29;1.75;;;1.45;;
77705;SDS011;66874;45.274;5.880;2023-04-03T18:20:54;2.10;;;1.50;;
77705;SDS011;66874;45.274;5.880;2023-04-03T18:23:20;1.63;;;1.52;;
77705;SDS011;66874;45.274;5.880;2023-04-03T18:25:45;1.95;;;1.70;;
77705;SDS011;66874;45.274;5.880;2023-04-03T18:28:11;1.70;;;1.23;;
77705;SDS011;66874;45.274;5.880;2023-04-03T18:30:37;5.07;;;1.52;;
77705;SDS011;66874;45.274;5.880;2023-04-03T18:33:02;1.58;;;1.25;;
77705;SDS011;66874;45.274;5.880;2023-04-03T18:35:27;2.92;;;1.27;;
77705;SDS011;66874;45.274;5.880;2023-04-03T18:37:53;3.53;;;2.33;;
77705;SDS011;66874;45.274;5.880;2023-04-03T18:40:19;1.98;;;1.45;;
77705;SDS011;66874;45.274;5.880;2023-04-03T18:42:44;2.40;;;1.42;;
77705;SDS011;66874;45.274;5.880;2023-04-03T18:45:10;2.05;;;1.52;;
77705;SDS011;66874;45.274;5.880;2023-04-03T18:47:37;2.15;;;1.33;;
77705;SDS011;66874;45.274;5.880;2023-04-03T18:50:03;3.42;;;1.42;;
77705;SDS011;66874;45.274;5.880;2023-04-03T18:52:30;3.45;;;1.65;;
77705;SDS011;66874;45.274;5.880;2023-04-03T18:54:56;2.45;;;1.67;;
77705;SDS011;66874;45.274;5.880;2023-04-03T18:57:21;1.98;;;1.40;;
77705;SDS011;66874;45.274;5.880;2023-04-03T18:59:47;2.08;;;1.33;;
77705;SDS011;66874;45.274;5.880;2023-04-03T19:02:13;3.38;;;1.50;;
77705;SDS011;66874;45.274;5.880;2023-04-03T19:04:39;2.30;;;1.60;;
77705;SDS011;66874;45.274;5.880;2023-04-03T19:07:06;1.88;;;1.33;;
77705;SDS011;66874;45.274;5.880;2023-04-03T19:09:32;2.72;;;1.30;;
77705;SDS011;66874;45.274;5.880;2023-04-03T19:11:58;2.08;;;1.50;;
77705;SDS011;66874;45.274;5.880;2023-04-03T19:14:25;2.33;;;1.60;;
77705;SDS011;66874;45.274;5.880;2023-04-03T19:16:51;2.38;;;1.50;;
77705;SDS011;66874;45.274;5.880;2023-04-03T19:19:16;3.70;;;1.75;;
77705;SDS011;66874;45.274;5.880;2023-04-03T19:21:42;1.70;;;1.20;;
77705;SDS011;66874;45.274;5.880;2023-04-03T19:24:09;1.98;;;1.45;;
77705;SDS011;66874;45.274;5.880;2023-04-03T19:26:35;3.65;;;3.00;;
77705;SDS011;66874;45.274;5.880;2023-04-03T19:29:01;2.55;;;1.75;;
77705;SDS011;66874;45.274;5.880;2023-04-03T19:31:26;1.83;;;1.58;;
77705;SDS011;66874;45.274;5.880;2023-04-03T19:33:53;3.70;;;2.00;;
77705;SDS011;66874;45.274;5.880;2023-04-03T19:36:19;3.13;;;1.85;;
77705;SDS011;66874;45.274;5.880;2023-04-03T19:38:44;3.83;;;1.73;;
77705;SDS011;66874;45.274;5.880;2023-04-03T19:41:11;3.38;;;1.90;;
77705;SDS011;66874;45.274;5.880;2023-04-03T19:43:38;1.98;;;1.77;;
77705;SDS011;66874;45.274;5.880;2023-04-03T19:46:05;2.43;;;2.00;;
77705;SDS011;66874;45.274;5.880;2023-04-03T19:48:31;1.95;;;1.50;;
77705;SDS011;66874;45.274;5.880;2023-04-03T19:50:57;4.53;;;2.47;;
77705;SDS011;66874;45.274;5.880;2023-04-03T19:53:22;3.05;;;1.98;;
77705;SDS011;66874;45.274;5.880;2023-04-03T19:55:53;3.00;;;1.80;;
77705;SDS011;66874;45.274;5.880;2023-04-03T19:58:20;2.20;;;1.92;;
77705;SDS011;66874;45.274;5.880;2023-04-03T20:00:45;1.70;;;1.50;;
77705;SDS011;66874;45.274;5.880;2023-04-03T20:03:10;2.65;;;2.03;;
77705;SDS011;66874;45.274;5.880;2023-04-03T20:05:36;3.17;;;2.20;;
77705;SDS011;66874;45.274;5.880;2023-04-03T20:08:01;2.80;;;1.88;;
77705;SDS011;66874;45.274;5.880;2023-04-03T20:10:27;4.22;;;1.83;;
77705;SDS011;66874;45.274;5.880;2023-04-03T20:12:52;2.15;;;1.58;;
77705;SDS011;66874;45.274;5.880;2023-04-03T20:15:18;2.10;;;1.70;;
77705;SDS011;66874;45.274;5.880;2023-04-03T20:17:43;4.18;;;1.98;;
77705;SDS011;66874;45.274;5.880;2023-04-03T20:20:09;2.63;;;1.75;;
77705;SDS011;66874;45.274;5.880;2023-04-03T20:22:36;3.40;;;2.05;;
77705;SDS011;66874;45.274;5.880;2023-04-03T20:25:06;1.60;;;1.50;;
77705;SDS011;66874;45.274;5.880;2023-04-03T20:27:33;3.50;;;2.40;;
77705;SDS011;66874;45.274;5.880;2023-04-03T20:29:59;2.15;;;1.60;;
77705;SDS011;66874;45.274;5.880;2023-04-03T20:32:26;2.35;;;1.75;;
77705;SDS011;66874;45.274;5.880;2023-04-03T20:34:51;3.00;;;1.95;;
77705;SDS011;66874;45.274;5.880;2023-04-03T20:37:18;2.72;;;1.88;;
77705;SDS011;66874;45.274;5.880;2023-04-03T20:39:47;3.92;;;1.90;;
77705;SDS011;66874;45.274;5.880;2023-04-03T20:42:13;3.38;;;2.17;;
77705;SDS011;66874;45.274;5.880;2023-04-03T20:44:39;3.22;;;1.70;;
77705;SDS011;66874;45.274;5.880;2023-04-03T20:47:08;1.90;;;1.67;;
77705;SDS011;66874;45.274;5.880;2023-04-03T20:49:34;3.75;;;1.92;;
77705;SDS011;66874;45.274;5.880;2023-04-03T20:52:00;3.40;;;1.92;;
77705;SDS011;66874;45.274;5.880;2023-04-03T20:54:25;6.32;;;2.10;;
77705;SDS011;66874;45.274;5.880;2023-04-03T20:56:50;3.47;;;1.80;;
77705;SDS011;66874;45.274;5.880;2023-04-03T20:59:17;4.90;;;2.22;;
77705;SDS011;66874;45.274;5.880;2023-04-03T21:01:42;4.20;;;2.13;;
77705;SDS011;66874;45.274;5.880;2023-04-03T21:04:11;2.78;;;1.80;;
77705;SDS011;66874;45.274;5.880;2023-04-03T21:20:56;2.72;;;1.92;;
77705;SDS011;66874;45.274;5.880;2023-04-03T21:23:21;3.13;;;2.10;;
77705;SDS011;66874;45.274;5.880;2023-04-03T21:25:48;4.85;;;2.28;;
77705;SDS011;66874;45.274;5.880;2023-04-03T21:28:15;4.00;;;2.10;;
77705;SDS011;66874;45.274;5.880;2023-04-03T21:30:41;3.88;;;2.58;;
77705;SDS011;66874;45.274;5.880;2023-04-03T21:33:06;2.88;;;1.65;;
77705;SDS011;66874;45.274;5.880;2023-04-03T21:35:31;3.25;;;1.90;;
77705;SDS011;66874;45.274;5.880;2023-04-03T21:37:57;3.33;;;2.15;;
77705;SDS011;66874;45.274;5.880;2023-04-03T21:40:23;3.92;;;2.33;;
77705;SDS011;66874;45.274;5.880;2023-04-03T21:42:52;2.38;;;2.00;;
77705;SDS011;66874;45.274;5.880;2023-04-03T21:45:18;5.65;;;2.40;;
77705;SDS011;66874;45.274;5.880;2023-04-03T21:47:44;3.67;;;2.40;;
77705;SDS011;66874;45.274;5.880;2023-04-03T21:50:10;3.55;;;2.38;;
77705;SDS011;66874;45.274;5.880;2023-04-03T21:52:35;4.10;;;2.17;;
77705;SDS011;66874;45.274;5.880;2023-04-03T21:55:01;4.55;;;2.60;;